Time;durP1;ratioP1;P1;durP2;ratioP2;P2;SDS_P1;SDS_P2;PMS_P1;PMS_P2;Temp;Humidity;BMP_temperature;BMP_pressure;BME280_temperature;BME280_humidity;BME280_pressure;Samples;Min_cycle;Max_cycle;Signal;HPM_P1;HPM_P2
2022/11/03 00:01:56;;;;;;;;;4.50;4.00;;;;;21.68;44.85;101051.63;5055932;28;45317;-58
2022/11/03 00:04:22;;;;;;;;;2.25;2.25;;;;;21.67;44.84;101054.34;5056721;28;45715;-58
2022/11/03 00:06:50;;;;;;;;;3.00;3.00;;;;;21.67;44.82;101059.63;5057095;28;45448;-58
2022/11/03 00:09:17;;;;;;;;;2.50;2.50;;;;;21.68;44.65;101067.47;5056764;28;45426;-57
2022/11/03 00:11:45;;;;;;;;;2.00;2.00;;;;;21.67;44.68;101065.78;5056435;28;45769;-57
2022/11/03 00:14:11;;;;;;;;;5.75;3.00;;;;;21.67;44.69;101056.97;5056421;28;45232;-58
2022/11/03 00:16:38;;;;;;;;;5.25;3.25;;;;;21.66;44.37;101053.50;5056653;28;45257;-57
2022/11/03 00:19:05;;;;;;;;;4.75;4.00;;;;;21.67;44.76;101043.78;5056360;28;45550;-58
2022/11/03 00:21:31;;;;;;;;;4.75;3.00;;;;;21.67;44.68;101038.53;5056396;28;46376;-57
2022/11/03 00:23:56;;;;;;;;;2.75;2.75;;;;;21.66;44.83;101042.13;5056478;28;45364;-57
2022/11/03 00:26:24;;;;;;;;;3.00;3.00;;;;;21.66;44.93;101042.13;5056675;28;45478;-57
2022/11/03 00:28:52;;;;;;;;;2.75;2.75;;;;;21.66;45.12;101042.13;5056454;28;46082;-57
2022/11/03 00:31:25;;;;;;;;;4.50;3.00;;;;;21.65;45.08;101040.41;5038794;28;45319;-58
2022/11/03 00:33:52;;;;;;;;;3.75;2.00;;;;;21.64;45.03;101031.63;5038533;28;45348;-58
2022/11/03 00:36:28;;;;;;;;;2.75;2.75;;;;;21.65;45.05;101029.88;5056730;28;45557;-57
2022/11/03 00:38:55;;;;;;;;;4.00;3.00;;;;;21.64;45.02;101022.91;5056193;28;46082;-57
2022/11/03 00:41:21;;;;;;;;;4.00;3.00;;;;;21.63;45.50;101027.31;5038290;28;45315;-57
2022/11/03 00:43:48;;;;;;;;;0.75;0.75;;;;;21.64;45.47;101020.25;5056514;28;45871;-57
2022/11/03 00:46:13;;;;;;;;;5.00;3.00;;;;;21.64;45.44;101017.63;5056320;28;45580;-57
2022/11/03 00:48:39;;;;;;;;;4.50;4.25;;;;;21.65;45.14;101019.31;5055882;28;45909;-57
2022/11/03 00:51:10;;;;;;;;;3.00;3.00;;;;;21.62;45.17;101005.38;5056052;28;45507;-57
2022/11/03 00:53:39;;;;;;;;;3.00;3.00;;;;;21.64;45.09;101004.44;5056260;28;45492;-57
2022/11/03 00:56:05;;;;;;;;;5.00;3.00;;;;;21.63;45.09;101016.75;5056182;28;45320;-57
2022/11/03 00:58:31;;;;;;;;;4.00;3.00;;;;;21.62;45.13;101004.50;5055827;28;46374;-57
2022/11/03 01:01:18;;;;;;;;;3.75;3.75;;;;;21.60;45.07;100991.41;5055896;28;45685;-57
2022/11/03 01:06:50;;;;;;;;;5.00;3.00;;;;;21.62;45.35;100993.94;5056144;28;45463;-57
2022/11/03 01:09:16;;;;;;;;;7.00;3.75;;;;;21.61;45.22;100979.91;5055819;28;45350;-57
2022/11/03 01:11:42;;;;;;;;;7.00;4.00;;;;;21.61;45.25;100972.00;5055809;28;45317;-57
2022/11/03 01:14:14;;;;;;;;;4.25;3.00;;;;;21.61;44.89;100972.00;5058063;28;45300;-57
2022/11/03 01:16:39;;;;;;;;;4.00;4.00;;;;;21.61;45.03;100966.72;5059387;28;45438;-57
2022/11/03 01:19:06;;;;;;;;;2.50;2.50;;;;;21.60;45.14;100965.03;5059107;28;45579;-57
2022/11/03 01:21:31;;;;;;;;;3.00;2.25;;;;;21.60;45.04;100970.31;5059264;28;45351;-57
2022/11/03 01:24:00;;;;;;;;;4.25;3.00;;;;;21.61;45.03;100961.47;5059326;28;45340;-57
2022/11/03 01:26:26;;;;;;;;;3.25;3.00;;;;;21.59;45.36;100950.16;5059387;28;45324;-57
2022/11/03 01:28:51;;;;;;;;;2.00;2.00;;;;;21.58;45.20;100940.50;5059264;28;45261;-57
2022/11/03 01:31:19;;;;;;;;;3.00;3.00;;;;;21.60;45.17;100938.66;5058808;28;45436;-57
2022/11/03 01:33:45;;;;;;;;;3.75;3.00;;;;;21.58;45.23;100940.50;5059209;28;45353;-57
2022/11/03 01:36:12;;;;;;;;;4.00;2.50;;;;;21.58;45.11;100935.22;5041149;28;45517;-57
2022/11/03 01:38:38;;;;;;;;;3.25;3.25;;;;;21.59;45.22;100936.97;5040663;28;48029;-57
2022/11/03 01:41:05;;;;;;;;;2.00;2.00;;;;;21.59;45.23;100915.84;5058833;28;45277;-57
2022/11/03 01:43:31;;;;;;;;;3.75;2.25;;;;;21.59;45.17;100915.84;5059000;28;45399;-56
2022/11/03 01:46:24;;;;;;;;;2.50;2.00;;;;;21.58;45.12;100908.84;5059011;28;45314;-56
2022/11/03 01:49:12;;;;;;;;;3.75;3.75;;;;;21.58;45.18;100902.75;5057466;28;46482;-57
2022/11/03 01:51:38;;;;;;;;;5.00;3.00;;;;;21.57;45.48;100901.88;5058600;28;45390;-57
2022/11/03 01:54:10;;;;;;;;;3.00;3.00;;;;;21.57;45.39;100901.88;5058748;28;45406;-57
2022/11/03 01:56:42;;;;;;;;;4.00;4.00;;;;;21.57;45.25;100896.59;5058911;28;45798;-57
2022/11/03 01:59:09;;;;;;;;;7.50;2.00;;;;;21.56;45.54;100889.63;5058762;28;46086;-57
2022/11/03 02:01:35;;;;;;;;;2.00;2.00;;;;;21.54;45.41;100875.69;5058557;28;45273;-57
2022/11/03 02:04:08;;;;;;;;;2.00;2.00;;;;;21.55;45.20;100877.38;5058625;28;45328;-56
2022/11/03 02:06:35;;;;;;;;;3.00;3.00;;;;;21.55;45.42;100861.56;5058947;28;45364;-57
2022/11/03 02:09:08;;;;;;;;;2.75;2.75;;;;;21.55;45.23;100876.53;5040242;28;46319;-56
2022/11/03 02:14:19;;;;;;;;;5.25;4.00;;;;;21.54;45.12;100865.16;5058286;28;45238;-57
2022/11/03 02:17:00;;;;;;;;;2.50;2.50;;;;;21.52;45.24;100856.47;5058502;28;45270;-57
2022/11/03 02:19:33;;;;;;;;;4.75;2.25;;;;;21.52;45.43;100861.75;5058554;28;46034;-55
2022/11/03 02:21:58;;;;;;;;;4.00;3.00;;;;;21.55;45.45;100852.81;5058120;28;45368;-57
2022/11/03 02:24:37;;;;;;;;;5.33;4.00;;;;;21.53;45.36;100850.28;5058103;28;45433;-57
2022/11/03 02:27:02;;;;;;;;;2.00;2.00;;;;;21.53;45.44;100845.00;5058610;28;45414;-57
2022/11/03 02:29:27;;;;;;;;;3.00;2.25;;;;;21.53;45.02;100837.09;5058403;28;46263;-61
2022/11/03 02:32:08;;;;;;;;;3.00;3.00;;;;;21.52;45.47;100834.50;5023601;28;45343;-57
2022/11/03 02:34:46;;;;;;;;;3.00;3.00;;;;;21.52;45.20;100823.97;5058237;28;45365;-56
2022/11/03 02:37:19;;;;;;;;;3.00;2.00;;;;;21.51;45.50;100824.91;5058144;28;45328;-56
2022/11/03 02:39:54;;;;;;;;;1.25;1.25;;;;;21.53;45.35;100809.84;5057910;28;45418;-57
2022/11/03 02:42:23;;;;;;;;;4.50;3.00;;;;;21.52;45.45;100809.00;5057933;28;45611;-57
2022/11/03 02:44:49;;;;;;;;;3.25;3.25;;;;;21.51;45.54;100812.59;5057875;28;45190;-56
2022/11/03 02:47:17;;;;;;;;;2.00;2.00;;;;;21.50;45.15;100805.63;5040208;28;45573;-56
2022/11/03 02:49:48;;;;;;;;;2.50;2.00;;;;;21.51;45.49;100804.69;5057725;28;46109;-56
2022/11/03 02:52:34;;;;;;;;;5.75;3.50;;;;;21.50;45.33;100794.22;5057784;28;45715;-56
2022/11/03 02:55:06;;;;;;;;;6.00;3.75;;;;;21.50;45.36;100787.16;5058003;28;45347;-56
2022/11/03 02:57:36;;;;;;;;;4.00;2.25;;;;;21.50;45.36;100787.16;5057878;28;45498;-57
2022/11/03 03:00:05;;;;;;;;;2.75;2.75;;;;;21.51;45.19;100780.06;5040190;28;46266;-57
2022/11/03 03:02:44;;;;;;;;;4.00;3.00;;;;;21.49;45.25;100777.53;5057514;28;45340;-57
2022/11/03 03:05:12;;;;;;;;;2.75;2.75;;;;;21.50;45.45;100768.69;5040420;28;45328;-57
2022/11/03 03:07:43;;;;;;;;;2.50;2.50;;;;;21.48;45.54;100754.75;5057831;28;45469;-57
2022/11/03 03:10:13;;;;;;;;;3.00;3.00;;;;;21.49;45.71;100745.91;5057454;28;45359;-57
2022/11/03 03:12:52;;;;;;;;;2.75;2.75;;;;;21.47;45.61;100732.81;5057395;28;45858;-56
2022/11/03 03:15:22;;;;;;;;;1.25;1.25;;;;;21.47;45.56;100719.63;5057521;28;45307;-57
2022/11/03 03:17:58;;;;;;;;;3.50;3.50;;;;;21.47;45.48;100718.78;5057851;28;45394;-57
2022/11/03 03:20:40;;;;;;;;;2.50;2.50;;;;;21.45;45.49;100704.81;5057294;28;46415;-57
2022/11/03 03:23:21;;;;;;;;;3.50;3.00;;;;;21.46;45.51;100714.44;5057328;28;45371;-56
2022/11/03 03:26:06;;;;;;;;;2.00;2.00;;;;;21.47;45.59;100705.59;5057293;28;45452;-56
2022/11/03 03:29:01;;;;;;;;;3.25;2.50;;;;;21.45;45.26;100700.41;5057680;28;45714;-56
2022/11/03 03:31:32;;;;;;;;;3.00;2.25;;;;;21.44;45.40;100698.72;5054752;28;45422;-56
2022/11/03 03:33:59;;;;;;;;;5.75;2.25;;;;;21.45;45.59;100692.50;5057596;28;45764;-57
2022/11/03 03:36:27;;;;;;;;;2.50;1.00;;;;;21.44;45.42;100674.16;5056251;28;45318;-56
2022/11/03 03:38:57;;;;;;;;;4.75;3.00;;;;;21.45;45.28;100660.00;5057460;28;45561;-57
2022/11/03 03:41:25;;;;;;;;;4.50;3.50;;;;;21.43;45.46;100661.91;5057062;28;46540;-57
2022/11/03 03:43:57;;;;;;;;;3.50;2.25;;;;;21.44;45.29;100668.88;5056912;28;45273;-57
2022/11/03 03:46:30;;;;;;;;;3.50;3.00;;;;;21.44;45.85;100667.09;5057360;28;45414;-57
2022/11/03 03:48:55;;;;;;;;;2.25;2.25;;;;;21.44;45.60;100675.00;5057170;28;45348;-57
2022/11/03 03:51:25;;;;;;;;;2.00;2.00;;;;;21.43;45.45;100673.28;5056707;28;47072;-56
2022/11/03 03:53:52;;;;;;;;;2.25;2.25;;;;;21.44;45.68;100668.88;5056888;28;45799;-56
2022/11/03 03:56:27;;;;;;;;;3.00;3.00;;;;;21.43;45.69;100673.28;5056773;28;45410;-56
2022/11/03 03:58:52;;;;;;;;;4.75;3.00;;;;;21.41;45.68;100680.44;5057107;28;45363;-56
2022/11/03 04:01:17;;;;;;;;;2.50;2.25;;;;;21.41;45.51;100680.44;5038406;28;47603;-57
2022/11/03 04:03:43;;;;;;;;;4.50;2.50;;;;;21.43;45.54;100683.00;5056665;28;45310;-57
2022/11/03 04:06:08;;;;;;;;;3.00;3.00;;;;;21.41;45.58;100667.25;5056683;28;45238;-54
2022/11/03 04:08:34;;;;;;;;;2.75;2.25;;;;;21.42;45.60;100665.50;5039023;28;45703;-56
2022/11/03 04:24:39;;;;;;;;;2.25;2.25;;;;;21.39;45.84;100647.22;5056186;28;45883;-57
2022/11/03 04:27:27;;;;;;;;;5.67;3.00;;;;;21.39;45.56;100645.41;5056242;28;59945;-56
2022/11/03 04:29:59;;;;;;;;;3.75;2.50;;;;;21.41;45.31;100632.16;5056585;28;45479;-56
2022/11/03 04:32:25;;;;;;;;;2.00;2.00;;;;;21.40;45.42;100619.91;5056446;28;45392;-55
2022/11/03 04:34:51;;;;;;;;;3.50;3.00;;;;;21.39;45.78;100624.31;5056459;28;45339;-56
2022/11/03 04:37:16;;;;;;;;;2.00;2.00;;;;;21.40;45.48;100614.66;5056339;28;45442;-57
2022/11/03 04:39:42;;;;;;;;;3.50;2.00;;;;;21.38;45.42;100612.13;5038442;28;45633;-56
2022/11/03 04:42:19;;;;;;;;;3.75;2.75;;;;;21.40;45.84;100612.00;5056087;28;46132;-57
2022/11/03 04:44:46;;;;;;;;;2.00;2.00;;;;;21.38;45.48;100598.06;5056337;28;45457;-56
2022/11/03 04:47:14;;;;;;;;;4.75;2.75;;;;;21.39;45.35;100597.13;5057233;28;45488;-57
2022/11/03 04:49:40;;;;;;;;;4.75;3.00;;;;;21.39;45.75;100597.13;5059952;28;45496;-57
2022/11/03 04:52:21;;;;;;;;;3.75;3.25;;;;;21.39;45.52;100594.50;5059996;28;45573;-57
2022/11/03 04:54:49;;;;;;;;;3.75;2.25;;;;;21.39;45.57;100591.84;5059695;28;45244;-57
2022/11/03 04:57:16;;;;;;;;;4.50;3.75;;;;;21.38;45.79;100584.88;5059600;28;45378;-56
2022/11/03 04:59:47;;;;;;;;;2.00;2.00;;;;;21.38;45.46;100579.63;5059860;28;45378;-56
2022/11/03 05:02:18;;;;;;;;;3.25;2.50;;;;;21.37;45.80;100572.66;5059471;28;46182;-57
2022/11/03 05:04:43;;;;;;;;;2.50;2.50;;;;;21.37;45.76;100572.66;5059349;28;45688;-57
2022/11/03 05:07:30;;;;;;;;;2.00;2.00;;;;;21.36;45.39;100549.84;5059486;28;45244;-57
2022/11/03 05:09:55;;;;;;;;;4.00;2.00;;;;;21.37;45.77;100546.28;5059705;28;45336;-57
2022/11/03 05:12:21;;;;;;;;;4.25;2.25;;;;;21.36;45.88;100539.31;5059206;28;45455;-57
2022/11/03 05:14:47;;;;;;;;;3.75;2.75;;;;;21.36;45.77;100540.19;5059136;28;45248;-57
2022/11/03 05:17:25;;;;;;;;;1.75;1.75;;;;;21.35;45.80;100541.13;5059336;28;45322;-57
2022/11/03 05:20:00;;;;;;;;;2.00;2.00;;;;;21.35;45.66;100538.47;5059488;28;45383;-57
2022/11/03 05:22:34;;;;;;;;;2.25;2.25;;;;;21.34;45.62;100535.94;5059166;28;45426;-57
2022/11/03 05:25:02;;;;;;;;;3.75;2.50;;;;;21.34;45.73;100533.28;5059268;28;45959;-58
2022/11/03 05:27:27;;;;;;;;;2.25;2.00;;;;;21.35;45.72;100513.91;5059369;28;45452;-57
2022/11/03 05:29:58;;;;;;;;;2.50;2.50;;;;;21.33;45.46;100508.72;5059371;28;45277;-58
2022/11/03 05:32:28;;;;;;;;;2.75;2.75;;;;;21.31;45.88;100495.66;5058909;28;46208;-57
2022/11/03 05:34:55;;;;;;;;;4.50;3.25;;;;;21.33;45.83;100497.34;5059120;28;45785;-58
2022/11/03 05:37:25;;;;;;;;;2.25;2.25;;;;;21.31;45.73;100500.94;5040664;28;45474;-57
2022/11/03 05:39:52;;;;;;;;;4.25;3.00;;;;;21.29;45.51;100494.91;5059158;28;45343;-58
2022/11/03 05:42:29;;;;;;;;;3.50;3.00;;;;;21.31;45.88;100495.66;5058773;28;46415;-57
2022/11/03 05:44:55;;;;;;;;;2.00;2.00;;;;;21.30;45.44;100483.41;5058890;28;45289;-57
2022/11/03 05:47:24;;;;;;;;;3.00;2.00;;;;;21.30;45.41;100470.25;5059015;28;46017;-57
2022/11/03 05:49:54;;;;;;;;;3.25;2.75;;;;;21.29;45.86;100455.38;5059071;28;45635;-57
2022/11/03 05:52:24;;;;;;;;;3.00;3.00;;;;;21.29;45.49;100450.09;5058786;28;45168;-57
2022/11/03 05:54:52;;;;;;;;;3.50;2.50;;;;;21.29;45.61;100436.91;5040605;28;45283;-57
2022/11/03 05:57:18;;;;;;;;;2.75;2.75;;;;;21.29;45.43;100438.69;5057447;28;45406;-59
2022/11/03 05:59:50;;;;;;;;;1.75;1.75;;;;;21.27;45.35;100446.72;5057979;28;45186;-57
2022/11/03 06:02:38;;;;;;;;;2.00;2.00;;;;;21.28;45.68;100444.91;5058480;28;45296;-57
2022/11/03 06:05:21;;;;;;;;;2.75;2.50;;;;;21.27;45.79;100438.81;5058505;28;45676;-57
2022/11/03 06:07:48;;;;;;;;;3.00;3.00;;;;;21.23;45.97;100437.28;5040537;28;45335;-57
2022/11/03 06:10:28;;;;;;;;;3.00;3.00;;;;;21.26;45.43;100431.84;5058800;28;45308;-57
2022/11/03 06:13:00;;;;;;;;;5.50;4.00;;;;;21.27;45.59;100427.44;5058185;28;47233;-55
2022/11/03 06:15:34;;;;;;;;;3.25;2.25;;;;;21.25;45.50;100419.59;5040057;28;45214;-56
2022/11/03 06:18:09;;;;;;;;;3.00;2.00;;;;;21.25;45.79;100416.97;5058421;28;45182;-57
2022/11/03 06:20:35;;;;;;;;;4.25;4.00;;;;;21.26;45.51;100428.38;5058689;28;45388;-58
2022/11/03 06:23:00;;;;;;;;;3.75;3.00;;;;;21.24;45.98;100417.06;5058089;28;45586;-58
2022/11/03 06:25:31;;;;;;;;;3.00;3.00;;;;;21.25;45.51;100410.88;5058238;28;45495;-57
2022/11/03 06:28:02;;;;;;;;;5.25;3.00;;;;;21.25;45.40;100400.31;5040262;28;45376;-58
2022/11/03 06:30:40;;;;;;;;;2.50;2.50;;;;;21.24;45.78;100399.47;5058371;28;45558;-57
2022/11/03 06:33:15;;;;;;;;;4.50;3.00;;;;;21.25;45.47;100392.41;5057944;28;46180;-58
2022/11/03 06:35:41;;;;;;;;;4.00;3.00;;;;;21.24;45.59;100388.91;5058253;28;45248;-58
2022/11/03 06:38:28;;;;;;;;;2.50;2.50;;;;;21.21;45.61;100390.91;5058095;28;45386;-58
2022/11/03 06:40:55;;;;;;;;;3.00;2.75;;;;;21.22;45.81;100380.25;5058331;28;45333;-58
2022/11/03 06:43:24;;;;;;;;;4.75;2.00;;;;;21.23;45.82;100375.84;5057921;28;45382;-58
2022/11/03 06:45:56;;;;;;;;;4.00;3.00;;;;;21.21;45.72;100361.91;5056929;28;45292;-57
2022/11/03 06:48:27;;;;;;;;;3.00;3.00;;;;;21.21;45.41;100361.91;5057991;28;45319;-57
2022/11/03 06:50:54;;;;;;;;;3.00;3.00;;;;;21.21;45.47;100359.28;5056912;28;45566;-57
2022/11/03 06:53:32;;;;;;;;;3.00;3.00;;;;;21.22;45.47;100358.34;5057692;28;45448;-57
2022/11/03 06:55:58;;;;;;;;;3.00;2.00;;;;;21.20;45.83;100361.09;5057704;28;45196;-57
2022/11/03 06:58:33;;;;;;;;;3.75;2.00;;;;;21.20;45.81;100368.13;5057835;28;45421;-56
2022/11/03 07:01:01;;;;;;;;;5.50;3.00;;;;;21.20;45.75;100354.97;5057816;28;45562;-58
2022/11/03 07:03:32;;;;;;;;;4.00;2.25;;;;;21.20;45.59;100345.28;5057571;28;47011;-57
2022/11/03 07:06:10;;;;;;;;;2.75;2.50;;;;;21.17;45.85;100325.22;5056409;28;45811;-57
2022/11/03 07:08:42;;;;;;;;;5.50;3.50;;;;;21.19;45.53;100325.13;5057793;28;45470;-57
2022/11/03 07:11:13;;;;;;;;;3.00;2.25;;;;;21.19;45.83;100316.38;5057771;28;45382;-57
2022/11/03 07:13:38;;;;;;;;;2.25;2.25;;;;;21.19;45.68;100322.50;5057209;28;45548;-57
2022/11/03 07:16:12;;;;;;;;;2.00;2.00;;;;;21.18;45.70;100305.00;5057362;28;45253;-57
2022/11/03 07:18:41;;;;;;;;;3.00;3.00;;;;;21.18;45.48;100315.53;5057501;28;45426;-56
2022/11/03 07:21:35;;;;;;;;;4.25;3.00;;;;;21.17;45.41;100308.56;5057578;28;45586;-57
2022/11/03 07:24:03;;;;;;;;;4.00;3.00;;;;;21.17;45.40;100308.56;5057238;28;45396;-57
2022/11/03 07:26:29;;;;;;;;;4.75;4.00;;;;;21.16;45.64;100299.84;5057119;28;45431;-57
2022/11/03 07:28:54;;;;;;;;;2.75;2.75;;;;;21.15;45.58;100284.09;5057246;28;45339;-57
2022/11/03 07:31:22;;;;;;;;;3.00;2.25;;;;;21.15;45.33;100290.25;5057464;28;45422;-57
2022/11/03 07:33:49;;;;;;;;;4.75;3.00;;;;;21.13;45.49;100286.00;5056974;28;46358;-56
2022/11/03 07:36:19;;;;;;;;;2.25;2.25;;;;;21.14;45.57;100285.91;5057310;28;45235;-55
2022/11/03 07:38:49;;;;;;;;;3.00;2.25;;;;;21.13;45.77;100276.31;5057342;28;45390;-57
2022/11/03 07:41:21;;;;;;;;;5.00;2.00;;;;;21.15;45.70;100281.47;5057429;28;45411;-56
2022/11/03 07:43:55;;;;;;;;;3.75;3.75;;;;;21.14;45.31;100267.47;5057004;28;46022;-57
2022/11/03 07:46:22;;;;;;;;;3.00;3.00;;;;;21.13;45.75;100265.78;5056246;28;45459;-57
2022/11/03 07:48:50;;;;;;;;;2.50;2.50;;;;;21.13;45.49;100262.28;5056926;28;45533;-56
2022/11/03 07:51:23;;;;;;;;;3.00;2.75;;;;;21.14;45.50;100250.78;5057282;28;45454;-57
2022/11/03 07:53:51;;;;;;;;;7.00;3.25;;;;;21.12;45.28;100250.06;5056574;28;47238;-57
2022/11/03 07:56:25;;;;;;;;;3.00;3.00;;;;;21.13;45.79;100259.66;5056890;28;45282;-55
2022/11/03 07:58:59;;;;;;;;;4.00;2.75;;;;;21.12;45.28;100268.50;5056648;28;45450;-56
2022/11/03 08:01:31;;;;;;;;;3.25;3.00;;;;;21.10;45.58;100244.91;5056565;28;45187;-57
2022/11/03 08:04:04;;;;;;;;;4.50;3.25;;;;;21.13;45.64;100254.38;5056538;28;46099;-56
2022/11/03 08:06:29;;;;;;;;;4.25;2.00;;;;;21.12;45.78;100243.00;5056364;28;45433;-57
2022/11/03 08:08:55;;;;;;;;;2.75;2.75;;;;;21.12;45.36;100242.16;5056683;28;45371;-52
2022/11/03 08:11:22;;;;;;;;;4.75;3.00;;;;;21.11;45.71;100243.13;5056528;28;45493;-56
2022/11/03 08:13:48;;;;;;;;;3.00;2.25;;;;;21.12;46.05;100232.47;5056364;28;46505;-56
2022/11/03 08:16:13;;;;;;;;;2.00;2.00;;;;;21.13;45.36;100231.53;5056415;28;45209;-56
2022/11/03 08:18:38;;;;;;;;;4.00;3.25;;;;;21.14;45.57;100227.09;5056518;28;45345;-55
2022/11/03 08:21:04;;;;;;;;;5.00;3.25;;;;;21.13;46.05;100228.88;5056445;28;45489;-55
2022/11/03 08:23:29;;;;;;;;;3.00;3.00;;;;;21.13;46.16;100228.03;5055561;28;47016;-54
2022/11/03 08:25:55;;;;;;;;;4.50;2.50;;;;;21.13;46.20;100217.50;5056216;28;45316;-57
2022/11/03 08:28:20;;;;;;;;;4.00;3.75;;;;;21.12;46.26;100211.38;5056424;28;45244;-56
2022/11/03 08:30:45;;;;;;;;;4.00;4.00;;;;;21.13;46.11;100218.34;5056074;28;45946;-55
2022/11/03 08:33:11;;;;;;;;;4.00;2.00;;;;;21.15;46.54;100218.22;5055653;28;45562;-56
2022/11/03 09:12:57;;;;;;;;;4.25;3.00;;;;;21.14;46.45;100129.59;5052295;28;45325;-60
2022/11/03 09:15:22;;;;;;;;;4.25;3.00;;;;;21.16;46.48;100130.31;5068479;28;45157;-63
2022/11/03 09:17:47;;;;;;;;;5.25;4.50;;;;;21.16;46.91;100130.31;5059843;28;45926;-68
2022/11/03 09:20:13;;;;;;;;;3.50;2.25;;;;;21.15;46.42;100116.31;5076116;28;45703;-64
2022/11/03 09:22:38;;;;;;;;;3.00;1.75;;;;;21.18;46.61;100104.72;5058645;28;46325;-62
2022/11/03 09:25:04;;;;;;;;;2.00;2.00;;;;;21.18;46.22;100107.34;5076109;28;44929;-66
2022/11/03 09:27:30;;;;;;;;;4.50;4.00;;;;;21.16;46.82;100094.28;5077922;28;45359;-69
2022/11/03 09:29:56;;;;;;;;;6.25;3.00;;;;;21.19;46.71;100087.09;5075490;28;44877;-69
2022/11/03 09:32:21;;;;;;;;;4.50;4.00;;;;;21.19;46.21;100095.88;5074778;28;45465;-70
2022/11/03 09:34:46;;;;;;;;;4.00;4.00;;;;;21.18;46.65;100073.09;5075249;28;45137;-73
2022/11/03 09:37:12;;;;;;;;;6.50;3.00;;;;;21.18;46.82;100073.09;5073624;28;45211;-70
2022/11/03 09:39:37;;;;;;;;;4.00;3.50;;;;;21.20;46.32;100075.63;5069507;28;45504;-66
2022/11/03 09:42:04;;;;;;;;;2.00;2.00;;;;;21.21;46.42;100069.41;5061927;28;61421;-66
2022/11/03 09:44:34;;;;;;;;;4.75;2.50;;;;;21.21;46.70;100067.63;5069984;28;45361;-69
2022/11/03 09:47:00;;;;;;;;;4.75;3.00;;;;;21.21;46.65;100062.34;5070315;28;45708;-66
2022/11/03 09:49:29;;;;;;;;;5.50;4.00;;;;;21.21;46.67;100058.84;5063802;28;45547;-65
2022/11/03 09:51:55;;;;;;;;;4.00;4.00;;;;;21.23;46.39;100064.88;5059368;28;46904;-63
2022/11/03 09:54:20;;;;;;;;;3.25;3.00;;;;;21.21;46.55;100046.53;5059922;28;45415;-67
2022/11/03 09:56:46;;;;;;;;;4.00;3.00;;;;;21.21;46.23;100046.53;5059662;28;45322;-66
2022/11/03 09:59:20;;;;;;;;;4.00;3.00;;;;;21.21;46.27;100043.91;5060643;28;45351;-68
2022/11/03 10:01:48;;;;;;;;;3.00;3.00;;;;;21.21;46.38;100038.63;5061507;28;45594;-66
2022/11/03 10:04:21;;;;;;;;;5.00;3.00;;;;;21.21;46.32;100036.00;5060198;28;45662;-65
2022/11/03 10:06:46;;;;;;;;;2.25;2.25;;;;;21.19;46.31;100022.09;5059043;28;45317;-68
2022/11/03 10:09:16;;;;;;;;;5.00;4.00;;;;;21.19;46.22;100027.34;5058755;28;45267;-64
2022/11/03 10:11:43;;;;;;;;;3.25;3.25;;;;;21.16;46.28;100017.88;5040230;28;47183;-68
2022/11/03 10:14:12;;;;;;;;;3.00;2.00;;;;;21.17;45.94;100019.53;5057900;28;45359;-67
2022/11/03 10:16:40;;;;;;;;;6.00;4.00;;;;;21.16;45.93;100014.38;5058259;28;45624;-66
2022/11/03 10:19:10;;;;;;;;;6.25;2.75;;;;;21.17;46.16;100013.44;5058629;28;45616;-67
2022/11/03 10:21:37;;;;;;;;;4.25;2.50;;;;;21.17;46.08;100013.44;5058234;28;46273;-63
2022/11/03 10:24:02;;;;;;;;;6.50;3.00;;;;;21.17;46.11;100002.91;5058397;28;45755;-65
2022/11/03 10:26:34;;;;;;;;;5.00;3.00;;;;;21.14;46.06;99990.78;5059474;28;45643;-67
2022/11/03 10:29:04;;;;;;;;;5.00;3.00;;;;;21.13;45.91;99986.47;5066124;28;45530;-67
2022/11/03 10:31:38;;;;;;;;;4.25;3.25;;;;;21.15;45.91;99988.97;5060296;28;45713;-59
2022/11/03 10:34:22;;;;;;;;;4.50;3.00;;;;;21.13;45.94;99982.97;5056983;28;45806;-72
2022/11/03 10:36:48;;;;;;;;;6.00;3.00;;;;;21.12;45.81;99990.06;5058186;28;45485;-73
2022/11/03 10:39:29;;;;;;;;;5.00;4.00;;;;;21.11;45.77;99982.28;5057951;28;45538;-72
2022/11/03 10:41:57;;;;;;;;;5.50;4.00;;;;;21.11;45.89;99977.00;5058095;28;46472;-70
2022/11/03 10:44:25;;;;;;;;;4.00;2.50;;;;;21.11;45.94;99977.00;5058044;28;45320;-67
2022/11/03 10:47:02;;;;;;;;;6.25;3.00;;;;;21.12;45.99;99978.66;5041008;28;45299;-67
2022/11/03 10:49:30;;;;;;;;;5.50;3.00;;;;;21.12;46.00;99981.28;5058650;28;45377;-60
2022/11/03 10:52:08;;;;;;;;;5.75;4.25;;;;;21.11;45.88;99977.00;5058434;28;46639;-60
2022/11/03 10:54:35;;;;;;;;;4.00;4.00;;;;;21.12;46.13;99973.38;5060530;28;45296;-61
2022/11/03 10:57:00;;;;;;;;;3.00;3.00;;;;;21.11;45.78;99956.75;5065407;28;45671;-62
2022/11/03 10:59:35;;;;;;;;;8.25;4.75;;;;;21.12;46.25;99957.56;5060018;28;45345;-62
2022/11/03 11:02:02;;;;;;;;;7.50;7.50;;;;;21.12;46.37;99961.06;5058252;28;46982;-64
2022/11/03 11:04:30;;;;;;;;;9.25;8.75;;;;;21.13;46.60;99954.00;5058169;28;45440;-65
2022/11/03 11:06:56;;;;;;;;;11.25;11.25;;;;;21.12;46.89;99947.03;5058158;28;45335;-60
2022/11/03 11:09:26;;;;;;;;;14.00;13.25;;;;;21.14;46.83;99953.91;5058244;28;45373;-64
2022/11/03 11:12:05;;;;;;;;;18.75;14.00;;;;;21.15;46.92;99955.59;5057894;28;47218;-62
2022/11/03 11:14:36;;;;;;;;;21.00;16.25;;;;;21.15;47.26;99947.69;5057845;28;45390;-64
2022/11/03 11:17:03;;;;;;;;;18.75;15.50;;;;;21.16;47.40;99943.25;5058075;28;45329;-65
2022/11/03 11:19:29;;;;;;;;;14.75;10.50;;;;;21.16;47.20;99945.88;5058131;28;45356;-65
2022/11/03 11:21:54;;;;;;;;;16.50;14.50;;;;;21.17;47.31;99929.13;5059191;28;46443;-65
2022/11/03 11:24:42;;;;;;;;;17.00;14.33;;;;;21.17;47.10;99916.78;5064835;28;45430;-62
2022/11/03 11:27:39;;;;;;;;;9.50;9.25;;;;;21.18;47.35;99920.25;5058985;28;45250;-64
2022/11/03 11:30:25;;;;;;;;;13.75;10.75;;;;;21.21;47.06;99920.03;5041710;28;45487;-63
2022/11/03 11:33:20;;;;;;;;;12.25;10.25;;;;;21.25;47.46;99934.66;5057170;28;46876;-65
2022/11/03 11:35:45;;;;;;;;;10.50;8.00;;;;;21.29;47.31;99933.50;5055494;28;45707;-69
2022/11/03 11:38:48;;;;;;;;;11.67;11.33;;;;;21.33;47.31;99920.94;5056527;28;45239;-65
2022/11/03 11:41:13;;;;;;;;;13.00;9.00;;;;;21.38;47.40;99923.22;5057288;28;45426;-66
2022/11/03 11:43:38;;;;;;;;;12.50;7.50;;;;;21.43;47.47;99924.56;5056985;28;46551;-70
2022/11/03 11:46:22;;;;;;;;;7.25;5.75;;;;;21.47;47.13;99920.75;5057078;28;45303;-70
2022/11/03 11:49:03;;;;;;;;;9.00;7.25;;;;;21.51;46.97;99902.06;5060634;28;45349;-63
2022/11/03 11:51:33;;;;;;;;;12.00;8.75;;;;;21.57;47.12;99902.44;5066082;28;45307;-61
2022/11/03 11:53:59;;;;;;;;;16.75;8.50;;;;;21.61;46.86;99884.63;5061686;28;45410;-62
2022/11/03 11:56:25;;;;;;;;;8.50;7.25;;;;;21.65;46.96;99886.09;5056311;28;45896;-69
2022/11/03 11:58:55;;;;;;;;;10.25;10.00;;;;;21.67;46.52;99870.16;5057191;28;45369;-67
2022/11/03 12:01:31;;;;;;;;;9.25;7.00;;;;;21.72;46.97;99875.94;5056825;28;45476;-69
2022/11/03 12:04:05;;;;;;;;;6.75;6.75;;;;;21.75;46.78;99880.97;5057377;28;46098;-62
2022/11/03 12:06:36;;;;;;;;;7.00;6.00;;;;;21.77;47.01;99877.25;5056658;28;45460;-62
2022/11/03 12:09:23;;;;;;;;;7.00;6.00;;;;;21.81;47.08;99869.94;5058042;28;45278;-66
2022/11/03 12:11:57;;;;;;;;;5.00;5.00;;;;;21.84;47.04;99874.13;5039699;28;46139;-65
2022/11/03 12:14:29;;;;;;;;;8.50;8.25;;;;;21.86;46.62;99878.38;5022091;28;46821;-62
2022/11/03 12:16:56;;;;;;;;;8.75;7.50;;;;;21.87;46.71;99869.50;5057317;28;45709;-64
2022/11/03 12:19:38;;;;;;;;;8.50;7.00;;;;;21.88;47.16;99871.16;5062349;27;45322;-69
2022/11/03 12:22:31;;;;;;;;;8.50;6.25;;;;;21.91;46.85;99860.38;5061363;28;45327;-64
2022/11/03 12:25:07;;;;;;;;;8.50;7.75;;;;;21.93;47.10;99847.91;5057164;28;46948;-67
2022/11/03 12:27:33;;;;;;;;;8.75;7.00;;;;;21.94;47.05;99843.44;5057461;28;45754;-68
2022/11/03 12:30:01;;;;;;;;;6.00;4.75;;;;;21.96;47.30;99840.72;5038968;28;45401;-65
2022/11/03 12:32:26;;;;;;;;;8.00;5.00;;;;;21.98;47.29;99834.34;5057019;28;45215;-67
2022/11/03 12:34:54;;;;;;;;;10.00;6.00;;;;;22.00;47.38;99831.59;5057135;28;46104;-69
2022/11/03 12:37:19;;;;;;;;;11.00;6.25;;;;;22.00;47.53;99832.44;5058508;28;45401;-68
2022/11/03 12:39:45;;;;;;;;;3.75;3.50;;;;;22.02;47.54;99819.97;5064404;28;45330;-65